sensor_id;sensor_type;location;lat;lon;timestamp;temperature;humidity
38488;DHT22;57384;51.986;4.458;2023-04-26T00:01:02;7.70;59.20
38488;DHT22;57384;51.986;4.458;2023-04-26T00:03:46;7.70;59.30
38488;DHT22;57384;51.986;4.458;2023-04-26T00:06:37;7.60;59.20
38488;DHT22;57384;51.986;4.458;2023-04-26T00:09:21;7.60;59.30
38488;DHT22;57384;51.986;4.458;2023-04-26T00:12:05;7.60;59.20
38488;DHT22;57384;51.986;4.458;2023-04-26T00:14:49;7.50;59.20
38488;DHT22;57384;51.986;4.458;2023-04-26T00:17:34;7.50;59.30
38488;DHT22;57384;51.986;4.458;2023-04-26T00:20:18;7.50;59.30
38488;DHT22;57384;51.986;4.458;2023-04-26T00:23:05;7.40;59.30
38488;DHT22;57384;51.986;4.458;2023-04-26T00:25:50;7.40;59.30
38488;DHT22;57384;51.986;4.458;2023-04-26T00:28:34;7.30;59.30
38488;DHT22;57384;51.986;4.458;2023-04-26T00:31:18;7.30;59.40
38488;DHT22;57384;51.986;4.458;2023-04-26T00:34:02;7.30;59.50
38488;DHT22;57384;51.986;4.458;2023-04-26T00:36:46;7.30;59.50
38488;DHT22;57384;51.986;4.458;2023-04-26T00:39:30;7.20;59.60
38488;DHT22;57384;51.986;4.458;2023-04-26T00:42:14;7.20;59.50
38488;DHT22;57384;51.986;4.458;2023-04-26T00:44:58;7.20;59.60
38488;DHT22;57384;51.986;4.458;2023-04-26T00:47:45;7.10;59.50
38488;DHT22;57384;51.986;4.458;2023-04-26T00:50:30;7.10;59.60
38488;DHT22;57384;51.986;4.458;2023-04-26T00:53:15;7.10;59.60
38488;DHT22;57384;51.986;4.458;2023-04-26T00:56:00;7.10;59.70
38488;DHT22;57384;51.986;4.458;2023-04-26T00:58:45;7.00;59.80
38488;DHT22;57384;51.986;4.458;2023-04-26T01:01:29;7.00;59.80
38488;DHT22;57384;51.986;4.458;2023-04-26T01:04:13;7.00;59.80
38488;DHT22;57384;51.986;4.458;2023-04-26T01:06:59;6.90;59.80
38488;DHT22;57384;51.986;4.458;2023-04-26T01:09:46;6.90;59.90
38488;DHT22;57384;51.986;4.458;2023-04-26T01:12:31;6.90;59.90
38488;DHT22;57384;51.986;4.458;2023-04-26T01:15:16;6.80;59.90
38488;DHT22;57384;51.986;4.458;2023-04-26T01:18:00;6.80;59.90
38488;DHT22;57384;51.986;4.458;2023-04-26T01:20:44;6.80;59.90
38488;DHT22;57384;51.986;4.458;2023-04-26T01:23:28;6.70;59.90
38488;DHT22;57384;51.986;4.458;2023-04-26T01:26:12;6.70;60.00
38488;DHT22;57384;51.986;4.458;2023-04-26T01:28:57;6.70;60.10
38488;DHT22;57384;51.986;4.458;2023-04-26T01:31:41;6.60;60.00
38488;DHT22;57384;51.986;4.458;2023-04-26T01:34:26;6.60;60.10
38488;DHT22;57384;51.986;4.458;2023-04-26T01:37:10;6.50;60.10
38488;DHT22;57384;51.986;4.458;2023-04-26T01:39:57;6.50;60.10
38488;DHT22;57384;51.986;4.458;2023-04-26T01:42:41;6.50;60.20
38488;DHT22;57384;51.986;4.458;2023-04-26T01:45:25;6.50;60.20
38488;DHT22;57384;51.986;4.458;2023-04-26T01:48:09;6.50;60.20
38488;DHT22;57384;51.986;4.458;2023-04-26T01:50:57;6.40;60.20
38488;DHT22;57384;51.986;4.458;2023-04-26T01:53:41;6.40;60.30
38488;DHT22;57384;51.986;4.458;2023-04-26T01:56:25;6.30;60.20
38488;DHT22;57384;51.986;4.458;2023-04-26T01:59:09;6.30;60.30
38488;DHT22;57384;51.986;4.458;2023-04-26T02:01:54;6.30;60.30
38488;DHT22;57384;51.986;4.458;2023-04-26T02:04:38;6.30;60.40
38488;DHT22;57384;51.986;4.458;2023-04-26T02:07:22;6.30;60.40
38488;DHT22;57384;51.986;4.458;2023-04-26T02:10:07;6.20;60.40
38488;DHT22;57384;51.986;4.458;2023-04-26T02:12:51;6.20;60.50
38488;DHT22;57384;51.986;4.458;2023-04-26T02:15:35;6.20;60.60
38488;DHT22;57384;51.986;4.458;2023-04-26T02:18:20;6.20;60.70
38488;DHT22;57384;51.986;4.458;2023-04-26T02:21:07;6.20;60.70
38488;DHT22;57384;51.986;4.458;2023-04-26T02:23:52;6.20;60.80
38488;DHT22;57384;51.986;4.458;2023-04-26T02:26:36;6.20;60.80
38488;DHT22;57384;51.986;4.458;2023-04-26T02:29:20;6.10;60.80
38488;DHT22;57384;51.986;4.458;2023-04-26T02:32:04;6.10;60.90
38488;DHT22;57384;51.986;4.458;2023-04-26T02:34:48;6.10;61.00
38488;DHT22;57384;51.986;4.458;2023-04-26T02:37:32;6.10;61.00
38488;DHT22;57384;51.986;4.458;2023-04-26T02:40:17;6.10;61.00
38488;DHT22;57384;51.986;4.458;2023-04-26T02:43:01;6.10;61.10
38488;DHT22;57384;51.986;4.458;2023-04-26T02:45:45;6.10;61.00
38488;DHT22;57384;51.986;4.458;2023-04-26T02:48:41;6.10;61.00
38488;DHT22;57384;51.986;4.458;2023-04-26T02:51:28;6.10;61.10
38488;DHT22;57384;51.986;4.458;2023-04-26T02:54:12;6.00;61.10
38488;DHT22;57384;51.986;4.458;2023-04-26T02:56:57;6.10;61.10
38488;DHT22;57384;51.986;4.458;2023-04-26T02:59:41;6.00;61.10
38488;DHT22;57384;51.986;4.458;2023-04-26T03:02:25;6.00;61.20
38488;DHT22;57384;51.986;4.458;2023-04-26T03:05:09;6.00;61.30
38488;DHT22;57384;51.986;4.458;2023-04-26T03:07:53;6.00;61.30
38488;DHT22;57384;51.986;4.458;2023-04-26T03:10:37;6.00;61.30
38488;DHT22;57384;51.986;4.458;2023-04-26T03:13:22;6.00;61.40
38488;DHT22;57384;51.986;4.458;2023-04-26T03:16:07;6.00;61.40
38488;DHT22;57384;51.986;4.458;2023-04-26T03:18:51;6.00;61.40
38488;DHT22;57384;51.986;4.458;2023-04-26T03:21:35;6.00;61.50
38488;DHT22;57384;51.986;4.458;2023-04-26T03:24:19;6.00;61.60
38488;DHT22;57384;51.986;4.458;2023-04-26T03:27:03;6.00;61.60
38488;DHT22;57384;51.986;4.458;2023-04-26T03:29:47;6.00;61.70
38488;DHT22;57384;51.986;4.458;2023-04-26T03:32:31;6.00;61.80
38488;DHT22;57384;51.986;4.458;2023-04-26T03:35:16;6.00;61.80
38488;DHT22;57384;51.986;4.458;2023-04-26T03:38:00;6.00;61.80
38488;DHT22;57384;51.986;4.458;2023-04-26T03:40:44;6.00;61.80
38488;DHT22;57384;51.986;4.458;2023-04-26T03:43:28;6.00;61.80
38488;DHT22;57384;51.986;4.458;2023-04-26T03:46:12;6.00;61.80
38488;DHT22;57384;51.986;4.458;2023-04-26T03:48:56;5.90;61.80
38488;DHT22;57384;51.986;4.458;2023-04-26T03:51:40;6.00;61.90
38488;DHT22;57384;51.986;4.458;2023-04-26T03:54:25;6.00;61.90
38488;DHT22;57384;51.986;4.458;2023-04-26T03:57:09;5.90;61.80
38488;DHT22;57384;51.986;4.458;2023-04-26T03:59:53;5.90;61.90
38488;DHT22;57384;51.986;4.458;2023-04-26T04:02:40;5.90;61.90
38488;DHT22;57384;51.986;4.458;2023-04-26T04:05:24;5.80;61.90
38488;DHT22;57384;51.986;4.458;2023-04-26T04:08:08;5.80;61.80
38488;DHT22;57384;51.986;4.458;2023-04-26T04:10:52;5.90;61.90
38488;DHT22;57384;51.986;4.458;2023-04-26T04:13:36;5.80;61.90
38488;DHT22;57384;51.986;4.458;2023-04-26T04:16:21;5.80;62.00
38488;DHT22;57384;51.986;4.458;2023-04-26T04:19:05;5.80;62.10
38488;DHT22;57384;51.986;4.458;2023-04-26T04:21:49;5.70;62.10
38488;DHT22;57384;51.986;4.458;2023-04-26T04:24:33;5.70;62.20
38488;DHT22;57384;51.986;4.458;2023-04-26T04:27:17;5.70;62.20
38488;DHT22;57384;51.986;4.458;2023-04-26T04:30:02;5.70;62.30
38488;DHT22;57384;51.986;4.458;2023-04-26T04:32:47;5.70;62.30
38488;DHT22;57384;51.986;4.458;2023-04-26T04:35:31;5.70;62.30
38488;DHT22;57384;51.986;4.458;2023-04-26T04:38:16;5.70;62.40
38488;DHT22;57384;51.986;4.458;2023-04-26T04:41:00;5.70;62.40
38488;DHT22;57384;51.986;4.458;2023-04-26T04:43:44;5.70;62.50
38488;DHT22;57384;51.986;4.458;2023-04-26T04:46:29;5.70;62.40
38488;DHT22;57384;51.986;4.458;2023-04-26T04:49:13;5.70;62.40
38488;DHT22;57384;51.986;4.458;2023-04-26T04:51:57;5.70;62.50
38488;DHT22;57384;51.986;4.458;2023-04-26T04:54:43;5.60;62.40
38488;DHT22;57384;51.986;4.458;2023-04-26T04:57:27;5.70;62.40
38488;DHT22;57384;51.986;4.458;2023-04-26T05:00:12;5.60;62.40
38488;DHT22;57384;51.986;4.458;2023-04-26T05:02:56;5.60;62.50
38488;DHT22;57384;51.986;4.458;2023-04-26T05:05:40;5.70;62.50
38488;DHT22;57384;51.986;4.458;2023-04-26T05:08:24;5.60;62.70
38488;DHT22;57384;51.986;4.458;2023-04-26T05:11:08;5.60;62.50
38488;DHT22;57384;51.986;4.458;2023-04-26T05:13:53;5.70;62.50
38488;DHT22;57384;51.986;4.458;2023-04-26T05:16:37;5.60;62.60
38488;DHT22;57384;51.986;4.458;2023-04-26T05:19:21;5.60;62.60
38488;DHT22;57384;51.986;4.458;2023-04-26T05:22:05;5.60;62.60
38488;DHT22;57384;51.986;4.458;2023-04-26T05:24:49;5.60;62.60
38488;DHT22;57384;51.986;4.458;2023-04-26T05:27:34;5.70;62.80
38488;DHT22;57384;51.986;4.458;2023-04-26T05:30:18;5.70;62.90
38488;DHT22;57384;51.986;4.458;2023-04-26T05:33:05;5.70;63.00
38488;DHT22;57384;51.986;4.458;2023-04-26T05:35:49;5.80;63.10
38488;DHT22;57384;51.986;4.458;2023-04-26T05:38:35;5.80;63.20
38488;DHT22;57384;51.986;4.458;2023-04-26T05:41:19;5.80;63.30
38488;DHT22;57384;51.986;4.458;2023-04-26T05:44:03;5.90;63.60
38488;DHT22;57384;51.986;4.458;2023-04-26T05:46:47;5.90;63.90
38488;DHT22;57384;51.986;4.458;2023-04-26T05:49:31;5.90;64.10
38488;DHT22;57384;51.986;4.458;2023-04-26T05:52:15;6.00;64.40
38488;DHT22;57384;51.986;4.458;2023-04-26T05:55:02;6.10;64.60
38488;DHT22;57384;51.986;4.458;2023-04-26T05:57:46;6.10;64.90
38488;DHT22;57384;51.986;4.458;2023-04-26T06:00:30;6.20;64.90
38488;DHT22;57384;51.986;4.458;2023-04-26T06:03:14;6.20;65.10
38488;DHT22;57384;51.986;4.458;2023-04-26T06:05:58;6.30;65.20
38488;DHT22;57384;51.986;4.458;2023-04-26T06:08:42;6.40;65.30
38488;DHT22;57384;51.986;4.458;2023-04-26T06:11:27;6.50;65.40
38488;DHT22;57384;51.986;4.458;2023-04-26T06:14:11;6.50;65.40
38488;DHT22;57384;51.986;4.458;2023-04-26T06:16:55;6.60;65.40
38488;DHT22;57384;51.986;4.458;2023-04-26T06:19:39;6.70;65.40
38488;DHT22;57384;51.986;4.458;2023-04-26T06:22:23;6.80;65.40
38488;DHT22;57384;51.986;4.458;2023-04-26T06:25:08;6.80;65.40
38488;DHT22;57384;51.986;4.458;2023-04-26T06:27:52;6.90;65.30
38488;DHT22;57384;51.986;4.458;2023-04-26T06:30:36;7.00;65.20
38488;DHT22;57384;51.986;4.458;2023-04-26T06:33:20;7.00;65.10
38488;DHT22;57384;51.986;4.458;2023-04-26T06:36:04;7.10;65.20
38488;DHT22;57384;51.986;4.458;2023-04-26T06:38:49;7.10;65.20
38488;DHT22;57384;51.986;4.458;2023-04-26T06:41:33;7.20;65.30
38488;DHT22;57384;51.986;4.458;2023-04-26T06:44:17;7.20;65.10
38488;DHT22;57384;51.986;4.458;2023-04-26T06:47:01;7.30;64.90
38488;DHT22;57384;51.986;4.458;2023-04-26T06:49:45;7.40;64.90
38488;DHT22;57384;51.986;4.458;2023-04-26T06:52:30;7.50;64.90
38488;DHT22;57384;51.986;4.458;2023-04-26T06:55:14;7.50;64.90
38488;DHT22;57384;51.986;4.458;2023-04-26T06:57:58;7.60;64.80
38488;DHT22;57384;51.986;4.458;2023-04-26T07:00:42;7.70;64.70
38488;DHT22;57384;51.986;4.458;2023-04-26T07:03:26;7.80;64.60
38488;DHT22;57384;51.986;4.458;2023-04-26T07:06:10;7.80;64.40
38488;DHT22;57384;51.986;4.458;2023-04-26T07:08:54;7.90;64.30
38488;DHT22;57384;51.986;4.458;2023-04-26T07:11:39;8.00;64.10
38488;DHT22;57384;51.986;4.458;2023-04-26T07:14:23;8.10;64.10
38488;DHT22;57384;51.986;4.458;2023-04-26T07:17:09;8.20;64.00
38488;DHT22;57384;51.986;4.458;2023-04-26T07:19:53;8.20;63.90
38488;DHT22;57384;51.986;4.458;2023-04-26T07:22:37;8.40;63.90
38488;DHT22;57384;51.986;4.458;2023-04-26T07:25:21;8.40;63.60
38488;DHT22;57384;51.986;4.458;2023-04-26T07:28:06;8.60;63.50
38488;DHT22;57384;51.986;4.458;2023-04-26T07:30:50;8.70;63.30
38488;DHT22;57384;51.986;4.458;2023-04-26T07:33:34;8.80;63.10
38488;DHT22;57384;51.986;4.458;2023-04-26T07:36:18;8.90;62.90
38488;DHT22;57384;51.986;4.458;2023-04-26T07:39:02;9.00;62.90
38488;DHT22;57384;51.986;4.458;2023-04-26T07:41:46;9.10;62.80
38488;DHT22;57384;51.986;4.458;2023-04-26T07:44:30;9.20;62.70
38488;DHT22;57384;51.986;4.458;2023-04-26T07:47:14;9.30;62.60
38488;DHT22;57384;51.986;4.458;2023-04-26T07:49:58;9.40;62.60
38488;DHT22;57384;51.986;4.458;2023-04-26T07:52:42;9.40;62.60
38488;DHT22;57384;51.986;4.458;2023-04-26T07:55:26;9.50;62.50
38488;DHT22;57384;51.986;4.458;2023-04-26T07:58:10;9.50;62.30
38488;DHT22;57384;51.986;4.458;2023-04-26T08:00:54;9.60;62.30
38488;DHT22;57384;51.986;4.458;2023-04-26T08:03:39;9.60;62.20
38488;DHT22;57384;51.986;4.458;2023-04-26T08:06:23;9.70;62.00
38488;DHT22;57384;51.986;4.458;2023-04-26T08:09:07;9.70;61.90
38488;DHT22;57384;51.986;4.458;2023-04-26T08:11:51;9.80;62.00
38488;DHT22;57384;51.986;4.458;2023-04-26T08:14:35;9.80;62.10
38488;DHT22;57384;51.986;4.458;2023-04-26T08:17:20;9.80;62.00
38488;DHT22;57384;51.986;4.458;2023-04-26T08:20:04;9.90;62.00
38488;DHT22;57384;51.986;4.458;2023-04-26T08:22:49;10.00;62.10
38488;DHT22;57384;51.986;4.458;2023-04-26T08:25:37;10.00;62.10
38488;DHT22;57384;51.986;4.458;2023-04-26T08:28:21;10.10;62.10
38488;DHT22;57384;51.986;4.458;2023-04-26T08:31:06;10.10;62.00
38488;DHT22;57384;51.986;4.458;2023-04-26T08:33:50;10.20;62.00
38488;DHT22;57384;51.986;4.458;2023-04-26T08:36:37;10.30;62.00
38488;DHT22;57384;51.986;4.458;2023-04-26T08:39:22;10.30;61.90
38488;DHT22;57384;51.986;4.458;2023-04-26T08:42:14;10.30;61.90
38488;DHT22;57384;51.986;4.458;2023-04-26T08:45:00;10.40;61.70
38488;DHT22;57384;51.986;4.458;2023-04-26T08:47:47;10.40;61.80
38488;DHT22;57384;51.986;4.458;2023-04-26T08:50:32;10.50;61.80
38488;DHT22;57384;51.986;4.458;2023-04-26T08:53:17;10.50;61.70
38488;DHT22;57384;51.986;4.458;2023-04-26T08:56:01;10.50;61.60
38488;DHT22;57384;51.986;4.458;2023-04-26T08:58:47;10.50;61.70
38488;DHT22;57384;51.986;4.458;2023-04-26T09:01:32;10.60;61.70
38488;DHT22;57384;51.986;4.458;2023-04-26T09:04:17;10.60;61.70
38488;DHT22;57384;51.986;4.458;2023-04-26T09:07:03;10.70;61.80
38488;DHT22;57384;51.986;4.458;2023-04-26T09:09:49;10.70;61.80
38488;DHT22;57384;51.986;4.458;2023-04-26T09:12:33;10.80;61.70
38488;DHT22;57384;51.986;4.458;2023-04-26T09:15:19;10.80;61.60
38488;DHT22;57384;51.986;4.458;2023-04-26T09:18:22;10.80;61.60
38488;DHT22;57384;51.986;4.458;2023-04-26T09:21:07;10.90;61.70
38488;DHT22;57384;51.986;4.458;2023-04-26T09:23:59;10.90;61.40
38488;DHT22;57384;51.986;4.458;2023-04-26T09:26:43;11.00;61.50
38488;DHT22;57384;51.986;4.458;2023-04-26T09:29:50;11.00;61.60
38488;DHT22;57384;51.986;4.458;2023-04-26T09:32:53;11.00;61.60
38488;DHT22;57384;51.986;4.458;2023-04-26T09:35:39;11.10;62.30
38488;DHT22;57384;51.986;4.458;2023-04-26T09:38:23;11.00;61.60
38488;DHT22;57384;51.986;4.458;2023-04-26T09:41:08;11.10;61.80
38488;DHT22;57384;51.986;4.458;2023-04-26T09:43:52;11.10;61.60
38488;DHT22;57384;51.986;4.458;2023-04-26T09:46:36;11.10;61.50
38488;DHT22;57384;51.986;4.458;2023-04-26T09:49:20;11.10;61.40
38488;DHT22;57384;51.986;4.458;2023-04-26T09:52:05;11.10;61.40
38488;DHT22;57384;51.986;4.458;2023-04-26T09:54:53;11.20;61.40
38488;DHT22;57384;51.986;4.458;2023-04-26T09:57:41;11.20;61.10
38488;DHT22;57384;51.986;4.458;2023-04-26T10:00:26;11.30;61.20
38488;DHT22;57384;51.986;4.458;2023-04-26T10:03:11;11.30;61.10
38488;DHT22;57384;51.986;4.458;2023-04-26T10:05:55;11.40;61.20
38488;DHT22;57384;51.986;4.458;2023-04-26T10:08:40;11.50;61.00
38488;DHT22;57384;51.986;4.458;2023-04-26T10:11:25;11.50;60.90
38488;DHT22;57384;51.986;4.458;2023-04-26T10:14:10;11.60;61.00
38488;DHT22;57384;51.986;4.458;2023-04-26T10:16:55;11.70;61.20
38488;DHT22;57384;51.986;4.458;2023-04-26T10:19:42;11.80;61.20
38488;DHT22;57384;51.986;4.458;2023-04-26T10:22:31;11.90;61.00
38488;DHT22;57384;51.986;4.458;2023-04-26T10:25:16;12.00;61.00
38488;DHT22;57384;51.986;4.458;2023-04-26T10:28:00;12.20;61.00
38488;DHT22;57384;51.986;4.458;2023-04-26T10:30:57;12.30;61.00
38488;DHT22;57384;51.986;4.458;2023-04-26T10:33:42;12.40;60.70
38488;DHT22;57384;51.986;4.458;2023-04-26T10:36:26;12.60;60.50
38488;DHT22;57384;51.986;4.458;2023-04-26T10:39:20;12.80;60.50
38488;DHT22;57384;51.986;4.458;2023-04-26T10:42:24;12.90;59.60
38488;DHT22;57384;51.986;4.458;2023-04-26T10:45:25;13.10;59.50
38488;DHT22;57384;51.986;4.458;2023-04-26T10:59:20;14.00;59.30
38488;DHT22;57384;51.986;4.458;2023-04-26T11:02:08;14.30;58.70
38488;DHT22;57384;51.986;4.458;2023-04-26T11:04:52;14.50;58.90
38488;DHT22;57384;51.986;4.458;2023-04-26T11:07:36;14.70;58.70
38488;DHT22;57384;51.986;4.458;2023-04-26T11:10:24;14.80;58.70
38488;DHT22;57384;51.986;4.458;2023-04-26T11:13:08;15.00;58.10
38488;DHT22;57384;51.986;4.458;2023-04-26T11:15:53;15.20;58.60
38488;DHT22;57384;51.986;4.458;2023-04-26T11:18:44;15.30;58.80
38488;DHT22;57384;51.986;4.458;2023-04-26T11:21:28;15.50;58.90
38488;DHT22;57384;51.986;4.458;2023-04-26T11:24:24;15.60;58.70
38488;DHT22;57384;51.986;4.458;2023-04-26T11:27:27;15.70;58.10
38488;DHT22;57384;51.986;4.458;2023-04-26T11:30:12;15.90;58.50
38488;DHT22;57384;51.986;4.458;2023-04-26T11:32:57;16.00;58.50
38488;DHT22;57384;51.986;4.458;2023-04-26T11:35:42;16.00;57.90
38488;DHT22;57384;51.986;4.458;2023-04-26T11:38:27;16.10;58.10
38488;DHT22;57384;51.986;4.458;2023-04-26T11:41:12;16.10;58.20
38488;DHT22;57384;51.986;4.458;2023-04-26T11:43:58;16.10;57.90
38488;DHT22;57384;51.986;4.458;2023-04-26T11:46:44;16.20;58.00
38488;DHT22;57384;51.986;4.458;2023-04-26T11:49:30;16.20;58.30
38488;DHT22;57384;51.986;4.458;2023-04-26T11:52:14;16.30;58.10
38488;DHT22;57384;51.986;4.458;2023-04-26T11:55:06;16.40;57.90
38488;DHT22;57384;51.986;4.458;2023-04-26T11:57:50;16.50;57.90
38488;DHT22;57384;51.986;4.458;2023-04-26T12:00:35;16.70;57.20
38488;DHT22;57384;51.986;4.458;2023-04-26T12:03:19;16.70;57.40
38488;DHT22;57384;51.986;4.458;2023-04-26T12:06:03;16.80;57.40
38488;DHT22;57384;51.986;4.458;2023-04-26T12:08:51;16.90;56.60
38488;DHT22;57384;51.986;4.458;2023-04-26T12:11:36;17.10;56.80
38488;DHT22;57384;51.986;4.458;2023-04-26T12:14:20;17.20;56.40
38488;DHT22;57384;51.986;4.458;2023-04-26T12:17:14;17.40;56.20
38488;DHT22;57384;51.986;4.458;2023-04-26T12:19:58;17.50;55.90
38488;DHT22;57384;51.986;4.458;2023-04-26T12:22:57;17.70;56.10
38488;DHT22;57384;51.986;4.458;2023-04-26T12:25:53;17.90;54.00
38488;DHT22;57384;51.986;4.458;2023-04-26T12:28:37;18.20;54.90
38488;DHT22;57384;51.986;4.458;2023-04-26T12:31:22;18.50;55.20
38488;DHT22;57384;51.986;4.458;2023-04-26T12:34:07;18.70;55.40
38488;DHT22;57384;51.986;4.458;2023-04-26T12:36:51;19.00;54.70
38488;DHT22;57384;51.986;4.458;2023-04-26T12:39:35;19.30;55.10
38488;DHT22;57384;51.986;4.458;2023-04-26T12:42:20;19.50;53.50
38488;DHT22;57384;51.986;4.458;2023-04-26T12:45:05;19.90;53.10
38488;DHT22;57384;51.986;4.458;2023-04-26T12:47:49;20.20;53.20
38488;DHT22;57384;51.986;4.458;2023-04-26T12:50:33;20.50;53.50
38488;DHT22;57384;51.986;4.458;2023-04-26T12:53:19;20.70;54.40
38488;DHT22;57384;51.986;4.458;2023-04-26T12:56:04;20.90;53.80
38488;DHT22;57384;51.986;4.458;2023-04-26T12:58:51;21.10;53.30
38488;DHT22;57384;51.986;4.458;2023-04-26T13:01:36;21.20;53.20
38488;DHT22;57384;51.986;4.458;2023-04-26T13:04:20;21.20;51.40
38488;DHT22;57384;51.986;4.458;2023-04-26T13:07:04;21.30;51.50
38488;DHT22;57384;51.986;4.458;2023-04-26T13:09:48;21.40;50.10
38488;DHT22;57384;51.986;4.458;2023-04-26T13:12:33;21.50;51.00
38488;DHT22;57384;51.986;4.458;2023-04-26T13:15:17;21.60;51.00
38488;DHT22;57384;51.986;4.458;2023-04-26T13:18:01;21.70;50.40
38488;DHT22;57384;51.986;4.458;2023-04-26T13:20:45;21.80;50.50
38488;DHT22;57384;51.986;4.458;2023-04-26T13:23:29;22.10;49.40
38488;DHT22;57384;51.986;4.458;2023-04-26T13:26:13;22.20;49.10
38488;DHT22;57384;51.986;4.458;2023-04-26T13:28:58;22.40;48.30
38488;DHT22;57384;51.986;4.458;2023-04-26T13:31:42;22.50;48.10
38488;DHT22;57384;51.986;4.458;2023-04-26T13:34:26;22.60;47.40
38488;DHT22;57384;51.986;4.458;2023-04-26T13:37:10;22.70;47.20
38488;DHT22;57384;51.986;4.458;2023-04-26T13:40:00;22.70;46.60
38488;DHT22;57384;51.986;4.458;2023-04-26T13:42:44;22.80;46.60
38488;DHT22;57384;51.986;4.458;2023-04-26T13:45:28;22.90;46.30
38488;DHT22;57384;51.986;4.458;2023-04-26T13:48:13;22.90;46.10
38488;DHT22;57384;51.986;4.458;2023-04-26T13:51:00;22.90;45.40
38488;DHT22;57384;51.986;4.458;2023-04-26T13:53:45;22.90;45.10
38488;DHT22;57384;51.986;4.458;2023-04-26T13:56:29;23.00;45.60
38488;DHT22;57384;51.986;4.458;2023-04-26T13:59:13;23.00;44.90
38488;DHT22;57384;51.986;4.458;2023-04-26T14:01:57;23.00;43.50
38488;DHT22;57384;51.986;4.458;2023-04-26T14:04:41;23.00;43.50
38488;DHT22;57384;51.986;4.458;2023-04-26T14:07:26;23.00;42.50
38488;DHT22;57384;51.986;4.458;2023-04-26T14:10:10;23.00;42.60
38488;DHT22;57384;51.986;4.458;2023-04-26T14:12:55;23.00;42.70
38488;DHT22;57384;51.986;4.458;2023-04-26T14:15:39;22.90;42.50
38488;DHT22;57384;51.986;4.458;2023-04-26T14:18:23;22.80;42.30
38488;DHT22;57384;51.986;4.458;2023-04-26T14:21:07;22.80;42.30
38488;DHT22;57384;51.986;4.458;2023-04-26T14:23:51;22.70;41.80
38488;DHT22;57384;51.986;4.458;2023-04-26T14:26:36;22.60;41.90
38488;DHT22;57384;51.986;4.458;2023-04-26T14:29:20;22.60;42.00
38488;DHT22;57384;51.986;4.458;2023-04-26T14:32:05;22.50;41.70
38488;DHT22;57384;51.986;4.458;2023-04-26T14:34:50;22.50;41.90
38488;DHT22;57384;51.986;4.458;2023-04-26T14:37:34;22.40;42.40
38488;DHT22;57384;51.986;4.458;2023-04-26T14:40:19;22.30;42.20
38488;DHT22;57384;51.986;4.458;2023-04-26T14:43:03;22.20;41.60
38488;DHT22;57384;51.986;4.458;2023-04-26T14:45:50;22.20;41.30
38488;DHT22;57384;51.986;4.458;2023-04-26T14:48:34;22.10;41.30
38488;DHT22;57384;51.986;4.458;2023-04-26T14:51:18;22.10;41.80
38488;DHT22;57384;51.986;4.458;2023-04-26T14:54:02;22.00;41.80
38488;DHT22;57384;51.986;4.458;2023-04-26T14:56:47;22.00;41.50
38488;DHT22;57384;51.986;4.458;2023-04-26T14:59:31;21.90;41.90
38488;DHT22;57384;51.986;4.458;2023-04-26T15:02:18;21.80;41.90
38488;DHT22;57384;51.986;4.458;2023-04-26T15:05:02;21.80;41.20
38488;DHT22;57384;51.986;4.458;2023-04-26T15:07:46;21.70;41.50
38488;DHT22;57384;51.986;4.458;2023-04-26T15:10:30;21.60;41.60
38488;DHT22;57384;51.986;4.458;2023-04-26T15:13:16;21.60;41.30
38488;DHT22;57384;51.986;4.458;2023-04-26T15:16:04;21.50;41.20
38488;DHT22;57384;51.986;4.458;2023-04-26T15:18:48;21.40;41.30
38488;DHT22;57384;51.986;4.458;2023-04-26T15:21:32;21.30;41.30
38488;DHT22;57384;51.986;4.458;2023-04-26T15:24:16;21.30;41.30
38488;DHT22;57384;51.986;4.458;2023-04-26T15:27:02;21.20;41.60
38488;DHT22;57384;51.986;4.458;2023-04-26T15:29:46;21.10;41.60
38488;DHT22;57384;51.986;4.458;2023-04-26T15:32:30;21.00;41.30
38488;DHT22;57384;51.986;4.458;2023-04-26T15:35:17;20.80;41.20
38488;DHT22;57384;51.986;4.458;2023-04-26T15:38:02;20.80;41.30
38488;DHT22;57384;51.986;4.458;2023-04-26T15:40:46;20.70;41.90
38488;DHT22;57384;51.986;4.458;2023-04-26T15:43:32;20.60;42.20
38488;DHT22;57384;51.986;4.458;2023-04-26T15:46:17;20.50;42.10
38488;DHT22;57384;51.986;4.458;2023-04-26T15:49:01;20.40;41.90
38488;DHT22;57384;51.986;4.458;2023-04-26T15:51:48;20.30;41.60
38488;DHT22;57384;51.986;4.458;2023-04-26T15:54:32;20.20;42.10
38488;DHT22;57384;51.986;4.458;2023-04-26T15:57:16;20.20;42.00
38488;DHT22;57384;51.986;4.458;2023-04-26T16:00:00;20.00;41.80
38488;DHT22;57384;51.986;4.458;2023-04-26T16:02:45;19.90;41.60
38488;DHT22;57384;51.986;4.458;2023-04-26T16:05:29;19.80;42.00
38488;DHT22;57384;51.986;4.458;2023-04-26T16:08:13;19.70;42.10
38488;DHT22;57384;51.986;4.458;2023-04-26T16:11:01;19.60;42.50
38488;DHT22;57384;51.986;4.458;2023-04-26T16:13:46;19.50;43.00
38488;DHT22;57384;51.986;4.458;2023-04-26T16:16:30;19.40;42.40
38488;DHT22;57384;51.986;4.458;2023-04-26T16:19:14;19.30;42.40
38488;DHT22;57384;51.986;4.458;2023-04-26T16:21:58;19.20;42.40
38488;DHT22;57384;51.986;4.458;2023-04-26T16:24:42;19.00;42.00
38488;DHT22;57384;51.986;4.458;2023-04-26T16:27:26;18.90;42.20
38488;DHT22;57384;51.986;4.458;2023-04-26T16:30:11;18.90;42.50
38488;DHT22;57384;51.986;4.458;2023-04-26T16:32:55;18.70;42.40
38488;DHT22;57384;51.986;4.458;2023-04-26T16:35:39;18.60;42.20
38488;DHT22;57384;51.986;4.458;2023-04-26T16:38:23;18.60;42.70
38488;DHT22;57384;51.986;4.458;2023-04-26T16:41:33;18.40;42.70
38488;DHT22;57384;51.986;4.458;2023-04-26T16:44:20;18.20;42.80
38488;DHT22;57384;51.986;4.458;2023-04-26T16:47:07;18.10;43.00
38488;DHT22;57384;51.986;4.458;2023-04-26T16:49:54;18.10;43.10
38488;DHT22;57384;51.986;4.458;2023-04-26T16:52:38;18.00;43.20
38488;DHT22;57384;51.986;4.458;2023-04-26T16:55:25;17.80;43.20
38488;DHT22;57384;51.986;4.458;2023-04-26T16:58:10;17.70;43.70
38488;DHT22;57384;51.986;4.458;2023-04-26T17:00:54;17.60;43.80
38488;DHT22;57384;51.986;4.458;2023-04-26T17:03:46;17.50;44.00
38488;DHT22;57384;51.986;4.458;2023-04-26T17:06:30;17.40;44.00
38488;DHT22;57384;51.986;4.458;2023-04-26T17:09:17;17.30;44.20
38488;DHT22;57384;51.986;4.458;2023-04-26T17:12:04;17.20;44.20
38488;DHT22;57384;51.986;4.458;2023-04-26T17:14:52;17.10;44.20
38488;DHT22;57384;51.986;4.458;2023-04-26T17:17:37;17.10;44.50
38488;DHT22;57384;51.986;4.458;2023-04-26T17:20:24;17.00;44.60
38488;DHT22;57384;51.986;4.458;2023-04-26T17:23:10;16.90;45.40
38488;DHT22;57384;51.986;4.458;2023-04-26T17:25:57;16.80;44.60
38488;DHT22;57384;51.986;4.458;2023-04-26T17:28:42;16.60;44.50
38488;DHT22;57384;51.986;4.458;2023-04-26T17:31:26;16.60;44.70
38488;DHT22;57384;51.986;4.458;2023-04-26T17:34:14;16.50;44.90
38488;DHT22;57384;51.986;4.458;2023-04-26T17:37:01;16.40;45.10
38488;DHT22;57384;51.986;4.458;2023-04-26T17:39:48;16.30;45.10
38488;DHT22;57384;51.986;4.458;2023-04-26T17:42:32;16.20;45.10